createdAt,value
2022-11-18T00:00:55.194Z,11.92
2022-11-18T00:03:21.738Z,11.96
2022-11-18T00:05:55.651Z,11.98
2022-11-18T00:08:23.329Z,11.98
2022-11-18T00:10:49.680Z,11.98
2022-11-18T00:13:35.162Z,11.97
2022-11-18T00:16:03.711Z,11.97
2022-11-18T00:18:30.724Z,11.92
2022-11-18T00:21:02.216Z,11.89
2022-11-18T00:23:29.047Z,11.85
2022-11-18T00:25:55.479Z,11.81
2022-11-18T00:28:21.852Z,11.76
2022-11-18T00:30:48.240Z,11.73
2022-11-18T00:33:14.554Z,11.68
2022-11-18T00:35:40.893Z,11.63
2022-11-18T00:38:08.083Z,11.58
2022-11-18T00:40:34.383Z,11.51
2022-11-18T00:43:00.693Z,11.45
2022-11-18T00:45:27.080Z,11.38
2022-11-18T00:47:53.393Z,11.32
2022-11-18T00:50:19.805Z,11.26
2022-11-18T00:52:46.373Z,11.21
2022-11-18T00:55:12.714Z,11.13
2022-11-18T00:57:39.078Z,11.07
2022-11-18T01:00:05.998Z,10.99
2022-11-18T01:02:32.365Z,10.94
2022-11-18T01:04:58.667Z,10.86
2022-11-18T01:07:25.100Z,10.80
2022-11-18T01:09:51.525Z,10.72
2022-11-18T01:12:36.351Z,10.66
2022-11-18T01:15:02.833Z,10.59
2022-11-18T01:17:32.269Z,10.54
2022-11-18T01:19:59.029Z,10.47
2022-11-18T01:22:25.501Z,10.42
2022-11-18T01:24:51.815Z,10.36
2022-11-18T01:27:18.148Z,10.31
2022-11-18T01:29:44.486Z,10.27
2022-11-18T01:32:24.495Z,10.24
2022-11-18T01:34:51.789Z,10.21
2022-11-18T01:37:18.156Z,10.19
2022-11-18T01:39:44.499Z,10.19
2022-11-18T01:42:17.492Z,10.20
2022-11-18T01:44:58.114Z,10.20
2022-11-18T01:47:28.701Z,10.20
2022-11-18T01:49:55.197Z,10.17
2022-11-18T01:52:23.113Z,10.17
2022-11-18T01:54:55.411Z,10.16
2022-11-18T01:57:23.000Z,10.14
2022-11-18T01:59:51.831Z,10.11
2022-11-18T02:02:18.136Z,10.11
2022-11-18T02:04:48.447Z,10.12
2022-11-18T02:07:15.686Z,10.12
2022-11-18T02:09:43.081Z,10.14
2022-11-18T02:12:10.211Z,10.15
2022-11-18T02:14:40.894Z,10.15
2022-11-18T02:17:13.185Z,10.17
2022-11-18T02:20:17.098Z,10.16
2022-11-18T02:22:56.760Z,10.17
2022-11-18T02:25:44.825Z,10.18
2022-11-18T02:28:23.420Z,10.18
2022-11-18T02:30:57.704Z,10.18
2022-11-18T02:33:31.961Z,10.18
2022-11-18T02:36:19.339Z,10.17
2022-11-18T02:38:52.086Z,10.16
2022-11-18T02:41:26.301Z,10.14
2022-11-18T02:44:02.119Z,10.10
2022-11-18T02:46:33.441Z,10.10
2022-11-18T02:49:03.365Z,10.05
2022-11-18T02:51:31.797Z,9.97
2022-11-18T02:54:05.121Z,9.91
2022-11-18T02:56:34.321Z,9.84
2022-11-18T02:59:00.843Z,9.79
2022-11-18T03:01:30.391Z,9.75
2022-11-18T03:03:56.908Z,9.70
2022-11-18T03:06:29.423Z,9.65
2022-11-18T03:09:21.187Z,9.64
2022-11-18T03:12:00.097Z,9.64
2022-11-18T03:14:41.440Z,9.63
2022-11-18T03:17:10.753Z,9.64
2022-11-18T03:19:58.718Z,9.67
2022-11-18T03:22:36.201Z,9.69
2022-11-18T03:25:21.146Z,9.71
2022-11-18T03:28:09.733Z,9.73
2022-11-18T03:30:40.605Z,9.76
2022-11-18T03:33:13.020Z,9.80
2022-11-18T03:35:43.002Z,9.80
2022-11-18T03:38:15.033Z,9.83
2022-11-18T03:40:48.500Z,9.83
2022-11-18T03:43:22.365Z,9.86
2022-11-18T03:45:52.030Z,9.87
2022-11-18T03:48:23.473Z,9.88
2022-11-18T03:51:06.314Z,9.90
2022-11-18T03:53:36.312Z,9.93
2022-11-18T03:56:15.822Z,9.93
2022-11-18T03:59:03.242Z,9.94
2022-11-18T04:01:37.524Z,9.95
2022-11-18T04:04:04.546Z,9.93
2022-11-18T04:06:47.478Z,9.92
2022-11-18T04:09:23.282Z,9.90
2022-11-18T04:12:04.401Z,9.87
2022-11-18T04:14:33.869Z,9.86
2022-11-18T04:17:00.657Z,9.83
2022-11-18T04:19:27.978Z,9.86
2022-11-18T04:21:54.339Z,9.87
2022-11-18T04:24:20.714Z,9.90
2022-11-18T04:26:47.011Z,9.93
2022-11-18T04:29:13.324Z,9.97
2022-11-18T04:31:39.708Z,10.01
2022-11-18T04:34:06.011Z,10.03
2022-11-18T04:36:32.332Z,10.05
2022-11-18T04:38:58.682Z,10.07
2022-11-18T04:41:44.969Z,10.10
2022-11-18T04:44:13.338Z,10.18
2022-11-18T04:46:43.531Z,10.18
2022-11-18T04:49:11.773Z,10.19
2022-11-18T04:51:38.534Z,10.21
2022-11-18T04:54:05.232Z,10.22
2022-11-18T04:56:32.075Z,10.24
2022-11-18T04:59:00.724Z,10.25
2022-11-18T05:01:28.680Z,10.26
2022-11-18T05:03:55.480Z,10.25
2022-11-18T05:06:22.523Z,10.25
2022-11-18T05:08:49.569Z,10.25
2022-11-18T05:11:34.811Z,10.21
2022-11-18T05:14:01.336Z,10.19
2022-11-18T05:16:27.701Z,10.16
2022-11-18T05:18:54.093Z,10.11
2022-11-18T05:21:20.511Z,10.07
2022-11-18T05:23:46.811Z,10.04
2022-11-18T05:26:13.197Z,10.01
2022-11-18T05:28:39.702Z,9.98
2022-11-18T05:31:10.852Z,9.95
2022-11-18T05:33:38.005Z,9.93
2022-11-18T05:36:05.889Z,9.90
2022-11-18T05:38:33.844Z,9.90
2022-11-18T05:41:00.948Z,9.88
2022-11-18T05:43:28.361Z,9.87
2022-11-18T05:45:54.783Z,9.87
2022-11-18T05:48:21.536Z,9.86
2022-11-18T05:50:49.487Z,9.86
2022-11-18T05:53:17.093Z,9.84
2022-11-18T05:56:02.416Z,9.85
2022-11-18T05:58:29.926Z,9.85
2022-11-18T06:01:01.809Z,9.85
2022-11-18T06:03:32.925Z,9.87
2022-11-18T06:06:03.255Z,9.86
2022-11-18T06:08:35.974Z,9.87
2022-11-18T06:11:02.548Z,9.87
2022-11-18T06:13:37.701Z,9.88
2022-11-18T06:16:04.354Z,9.88
2022-11-18T06:18:32.917Z,9.88
2022-11-18T06:21:04.501Z,9.89
2022-11-18T06:23:35.165Z,9.90
2022-11-18T06:26:01.992Z,9.89
2022-11-18T06:28:29.627Z,9.89
2022-11-18T06:30:55.941Z,9.92
2022-11-18T06:33:22.235Z,9.92
2022-11-18T06:35:48.582Z,9.93
2022-11-18T06:38:14.892Z,9.94
2022-11-18T06:40:44.602Z,9.96
2022-11-18T06:43:30.505Z,9.98
2022-11-18T06:46:20.114Z,10.00
2022-11-18T06:48:46.798Z,10.01
2022-11-18T06:51:13.161Z,10.02
2022-11-18T06:53:39.558Z,10.02
2022-11-18T06:56:08.064Z,10.02
2022-11-18T06:58:35.934Z,10.03
2022-11-18T07:01:18.694Z,10.05
2022-11-18T07:03:46.266Z,10.06
2022-11-18T07:06:15.044Z,10.07
2022-11-18T07:08:42.475Z,10.07
2022-11-18T07:11:12.231Z,10.09
2022-11-18T07:13:43.329Z,10.09
2022-11-18T07:16:13.136Z,10.10
2022-11-18T07:18:41.673Z,10.11
2022-11-18T07:21:19.707Z,10.13
2022-11-18T07:23:46.222Z,10.14
2022-11-18T07:26:13.416Z,10.16
2022-11-18T07:28:40.261Z,10.16
2022-11-18T07:31:09.034Z,10.17
2022-11-18T07:33:36.489Z,10.20
2022-11-18T07:36:12.122Z,10.21
2022-11-18T07:38:39.237Z,10.22
2022-11-18T07:41:14.717Z,10.26
2022-11-18T07:43:41.510Z,10.28
2022-11-18T07:46:28.977Z,10.32
2022-11-18T07:48:57.506Z,10.34
2022-11-18T07:51:26.483Z,10.37
2022-11-18T07:53:53.317Z,10.40
2022-11-18T07:56:21.249Z,10.43
2022-11-18T07:58:48.148Z,10.44
2022-11-18T08:01:17.034Z,10.46
2022-11-18T08:03:44.170Z,10.47
2022-11-18T08:06:12.632Z,10.48
2022-11-18T08:08:39.305Z,10.50
2022-11-18T08:11:08.430Z,10.51
2022-11-18T08:13:35.617Z,10.53
2022-11-18T08:16:02.522Z,10.55
2022-11-18T08:18:30.800Z,10.59
2022-11-18T08:21:02.897Z,10.62
2022-11-18T08:23:33.133Z,10.64
2022-11-18T08:26:06.875Z,10.66
2022-11-18T08:28:34.012Z,10.67
2022-11-18T08:31:00.758Z,10.69
2022-11-18T08:33:27.085Z,10.71
2022-11-18T08:35:53.523Z,10.74
2022-11-18T08:40:48.376Z,10.79
2022-11-18T08:43:14.781Z,10.81
2022-11-18T08:45:41.542Z,10.83
2022-11-18T08:48:08.129Z,10.85
2022-11-18T08:50:34.476Z,10.86
2022-11-18T08:53:00.831Z,10.86
2022-11-18T08:55:27.156Z,10.86
2022-11-18T08:57:53.578Z,10.85
2022-11-18T09:00:20.032Z,10.85
2022-11-18T09:02:46.546Z,10.87
2022-11-18T09:05:12.862Z,10.88
2022-11-18T09:07:39.259Z,10.89
2022-11-18T09:10:06.051Z,10.89
2022-11-18T09:12:32.386Z,10.89
2022-11-18T09:15:15.109Z,10.89
2022-11-18T09:17:41.832Z,10.89
2022-11-18T09:20:08.771Z,10.88
2022-11-18T09:22:37.665Z,10.87
2022-11-18T09:25:04.206Z,10.84
2022-11-18T09:27:30.544Z,10.82
2022-11-18T09:29:56.861Z,10.81
2022-11-18T09:32:23.201Z,10.78
2022-11-18T09:34:49.535Z,10.79
2022-11-18T09:37:16.087Z,10.77
2022-11-18T09:39:42.513Z,10.78
2022-11-18T09:42:51.161Z,10.79
2022-11-18T09:45:28.304Z,10.78
2022-11-18T09:47:58.677Z,10.80
2022-11-18T09:53:29.470Z,10.82
2022-11-18T09:55:55.805Z,10.81
2022-11-18T09:58:32.889Z,10.79
2022-11-18T10:00:59.601Z,10.75
2022-11-18T10:03:29.465Z,10.74
2022-11-18T10:06:03.533Z,10.71
2022-11-18T10:08:52.698Z,10.67
2022-11-18T10:11:23.861Z,10.65
2022-11-18T10:14:14.972Z,10.61
2022-11-18T10:16:56.619Z,10.59
2022-11-18T10:19:44.030Z,10.58
2022-11-18T10:22:22.636Z,10.57
2022-11-18T10:24:53.956Z,10.57
2022-11-18T10:27:26.934Z,10.57
2022-11-18T10:29:57.342Z,10.55
2022-11-18T10:32:23.889Z,10.53
2022-11-18T10:34:59.294Z,10.51
2022-11-18T10:38:05.828Z,10.47
2022-11-18T10:40:26.564Z,10.45
2022-11-18T10:42:53.115Z,10.42
2022-11-18T10:45:22.430Z,10.39
2022-11-18T10:48:10.099Z,10.38
2022-11-18T10:50:39.948Z,10.37
2022-11-18T10:53:32.172Z,10.37
2022-11-18T10:56:01.426Z,10.39
2022-11-18T10:58:31.185Z,10.37
2022-11-18T11:01:06.733Z,10.36
2022-11-18T11:03:37.480Z,10.35
2022-11-18T11:06:15.852Z,10.30
2022-11-18T11:09:00.294Z,10.26
2022-11-18T11:11:28.703Z,10.23
2022-11-18T11:14:01.607Z,10.20
2022-11-18T11:16:30.209Z,10.16
2022-11-18T11:19:04.069Z,10.14
2022-11-18T11:21:33.280Z,10.14
2022-11-18T11:23:59.672Z,10.13
2022-11-18T11:29:52.894Z,10.09
2022-11-18T11:32:48.589Z,10.07
2022-11-18T11:35:17.570Z,10.05
2022-11-18T11:37:43.856Z,10.03
2022-11-18T11:40:32.495Z,10.00
2022-11-18T11:43:26.846Z,9.98
2022-11-18T11:45:53.129Z,9.96
2022-11-18T11:48:40.399Z,9.92
2022-11-18T11:51:25.129Z,9.89
2022-11-18T11:54:23.173Z,9.86
2022-11-18T11:56:59.338Z,9.82
2022-11-18T11:59:45.061Z,9.79
2022-11-18T12:02:20.197Z,9.75
2022-11-18T12:04:52.274Z,9.72
2022-11-18T12:07:22.857Z,9.70
2022-11-18T12:10:08.467Z,9.66
2022-11-18T12:12:50.232Z,9.63
2022-11-18T12:15:29.243Z,9.62
2022-11-18T12:18:08.984Z,9.61
2022-11-18T12:20:42.067Z,9.59
2022-11-18T12:23:12.358Z,9.56
2022-11-18T12:25:47.773Z,9.54
2022-11-18T12:28:30.091Z,9.49
2022-11-18T12:31:18.057Z,9.42
2022-11-18T12:33:53.373Z,9.38
2022-11-18T12:36:40.005Z,9.34
2022-11-18T12:39:24.994Z,9.31
2022-11-18T12:42:17.374Z,9.27
2022-11-18T12:44:46.169Z,9.22
2022-11-18T12:47:14.400Z,9.17
2022-11-18T12:49:46.466Z,9.12
2022-11-18T12:52:31.210Z,9.06
2022-11-18T12:55:04.209Z,9.00
2022-11-18T12:57:34.639Z,8.97
2022-11-18T13:00:22.696Z,8.96
2022-11-18T13:03:03.418Z,8.96
2022-11-18T13:05:35.959Z,8.96
2022-11-18T13:08:13.975Z,8.91
2022-11-18T13:10:43.373Z,8.90
2022-11-18T13:13:32.789Z,8.89
2022-11-18T13:16:38.253Z,8.88
2022-11-18T13:19:05.928Z,8.84
2022-11-18T13:21:51.239Z,8.82
2022-11-18T13:24:20.268Z,8.77
2022-11-18T13:26:53.411Z,8.73
2022-11-18T13:29:54.356Z,8.70
2022-11-18T13:32:27.425Z,8.67
2022-11-18T13:35:05.375Z,8.65
2022-11-18T13:37:34.428Z,8.62
2022-11-18T13:40:01.064Z,8.58
2022-11-18T13:42:31.540Z,8.56
2022-11-18T13:44:59.722Z,8.51
2022-11-18T13:47:47.869Z,8.49
2022-11-18T13:50:22.631Z,8.45
2022-11-18T13:53:20.108Z,8.41
2022-11-18T13:55:49.318Z,8.35
2022-11-18T13:58:18.648Z,8.33
2022-11-18T14:00:57.249Z,8.31
2022-11-18T14:03:35.972Z,8.28
2022-11-18T14:06:02.624Z,8.28
2022-11-18T14:08:37.179Z,8.26
2022-11-18T14:11:05.432Z,8.25
2022-11-18T14:13:34.483Z,8.25
2022-11-18T14:16:04.210Z,8.24
2022-11-18T14:18:33.056Z,8.22
2022-11-18T14:21:00.732Z,8.19
2022-11-18T14:23:37.424Z,8.15
2022-11-18T14:26:06.150Z,8.12
2022-11-18T14:28:36.745Z,8.08
2022-11-18T14:31:25.063Z,8.03
2022-11-18T14:34:20.969Z,7.98
2022-11-18T14:36:48.123Z,7.90
2022-11-18T14:39:27.429Z,7.83
2022-11-18T14:41:55.127Z,7.78
2022-11-18T14:44:24.236Z,7.73
2022-11-18T14:47:23.023Z,7.66
2022-11-18T14:49:49.399Z,7.63
2022-11-18T14:52:16.306Z,7.60
2022-11-18T14:54:42.646Z,7.58
2022-11-18T14:57:15.566Z,7.57
2022-11-18T14:59:42.380Z,7.53
2022-11-18T15:02:17.174Z,7.52
2022-11-18T15:04:43.757Z,7.52
2022-11-18T15:07:18.586Z,7.51
2022-11-18T15:09:49.407Z,7.50
2022-11-18T15:12:15.806Z,7.47
2022-11-18T15:14:42.106Z,7.45
2022-11-18T15:17:12.657Z,7.41
2022-11-18T15:19:40.551Z,7.36
2022-11-18T15:22:07.405Z,7.31
2022-11-18T15:24:33.731Z,7.26
2022-11-18T15:27:04.925Z,7.20
2022-11-18T15:29:31.529Z,7.14
2022-11-18T15:31:57.955Z,7.10
2022-11-18T15:34:25.080Z,7.04
2022-11-18T15:36:51.565Z,6.99
2022-11-18T15:39:18.034Z,6.95
2022-11-18T15:41:44.546Z,6.91
2022-11-18T15:44:11.580Z,6.88
2022-11-18T15:46:38.629Z,6.85
2022-11-18T15:49:07.335Z,6.83
2022-11-18T15:51:35.967Z,6.81
2022-11-18T15:54:02.298Z,6.77
2022-11-18T15:56:30.441Z,6.75
2022-11-18T15:59:05.908Z,6.74
2022-11-18T16:01:35.061Z,6.71
2022-11-18T16:04:02.245Z,6.70
2022-11-18T16:06:28.845Z,6.70
2022-11-18T16:09:00.055Z,6.72
2022-11-18T16:11:46.973Z,6.71
2022-11-18T16:14:15.336Z,6.70
2022-11-18T16:16:43.596Z,6.69
2022-11-18T16:19:12.676Z,6.68
2022-11-18T16:21:53.819Z,6.68
2022-11-18T16:24:23.237Z,6.65
2022-11-18T16:26:50.279Z,6.64
2022-11-18T16:29:17.968Z,6.63
2022-11-18T16:31:50.718Z,6.60
2022-11-18T16:34:18.947Z,6.59
2022-11-18T16:36:52.252Z,6.57
2022-11-18T16:39:30.983Z,6.57
2022-11-18T16:42:07.458Z,6.55
2022-11-18T16:44:34.915Z,6.54
2022-11-18T16:47:07.686Z,6.53
2022-11-18T16:49:37.055Z,6.56
2022-11-18T16:52:03.550Z,6.54
2022-11-18T16:54:31.944Z,6.51
2022-11-18T16:56:59.643Z,6.49
2022-11-18T16:59:28.819Z,6.48
2022-11-18T17:01:57.110Z,6.49
2022-11-18T17:04:24.664Z,6.51
2022-11-18T17:06:52.094Z,6.52
2022-11-18T17:09:21.031Z,6.53
2022-11-18T17:11:48.435Z,6.52
2022-11-18T17:14:14.833Z,6.51
2022-11-18T17:16:41.728Z,6.50
2022-11-18T17:19:13.096Z,6.49
2022-11-18T17:21:39.454Z,6.45
2022-11-18T17:24:06.684Z,6.42
2022-11-18T17:26:33.144Z,6.37
2022-11-18T17:28:59.828Z,6.31
2022-11-18T17:31:26.291Z,6.24
2022-11-18T17:33:55.080Z,6.15
2022-11-18T17:36:23.786Z,6.08
2022-11-18T17:38:52.186Z,6.02
2022-11-18T17:41:39.602Z,5.94
2022-11-18T17:44:08.217Z,5.87
2022-11-18T17:46:38.314Z,5.81
2022-11-18T17:49:07.585Z,5.75
2022-11-18T17:51:34.027Z,5.69
2022-11-18T17:54:00.403Z,5.65
2022-11-18T17:56:26.816Z,5.61
2022-11-18T17:58:53.312Z,5.58
2022-11-18T18:01:21.504Z,5.55
2022-11-18T18:03:48.539Z,5.53
2022-11-18T18:06:15.591Z,5.52
2022-11-18T18:08:42.795Z,5.53
2022-11-18T18:11:17.115Z,5.53
2022-11-18T18:14:02.971Z,5.53
2022-11-18T18:16:31.199Z,5.54
2022-11-18T18:18:58.686Z,5.55
2022-11-18T18:21:25.479Z,5.56
2022-11-18T18:23:52.013Z,5.56
2022-11-18T18:26:18.752Z,5.54
2022-11-18T18:28:45.377Z,5.52
2022-11-18T18:31:14.075Z,5.50
2022-11-18T18:33:41.189Z,5.50
2022-11-18T18:36:10.054Z,5.49
2022-11-18T18:38:38.014Z,5.48
2022-11-18T18:41:08.233Z,5.46
2022-11-18T18:43:34.690Z,5.45
2022-11-18T18:46:21.915Z,5.46
2022-11-18T18:48:48.440Z,5.46
2022-11-18T18:51:14.871Z,5.47
2022-11-18T18:53:41.322Z,5.49
2022-11-18T18:56:08.058Z,5.49
2022-11-18T18:58:34.750Z,5.51
2022-11-18T19:01:09.279Z,5.53
2022-11-18T19:03:36.179Z,5.50
2022-11-18T19:09:14.900Z,5.48
2022-11-18T19:12:00.371Z,5.46
2022-11-18T19:14:28.055Z,5.45
2022-11-18T19:16:55.289Z,5.43
2022-11-18T19:19:44.374Z,5.41
2022-11-18T19:22:13.390Z,5.39
2022-11-18T19:24:50.233Z,5.36
2022-11-18T19:27:20.369Z,5.32
2022-11-18T19:29:47.197Z,5.28
2022-11-18T19:32:13.936Z,5.25
2022-11-18T19:34:40.418Z,5.23
2022-11-18T19:37:06.982Z,5.22
2022-11-18T19:39:34.517Z,5.20
2022-11-18T19:42:01.171Z,5.18
2022-11-18T19:44:27.571Z,5.16
2022-11-18T19:46:53.973Z,5.14
2022-11-18T19:49:20.897Z,5.11
2022-11-18T19:51:47.746Z,5.11
2022-11-18T19:54:14.138Z,5.10
2022-11-18T19:56:40.795Z,5.10
2022-11-18T19:59:07.212Z,5.10
2022-11-18T20:01:33.683Z,5.08
2022-11-18T20:04:05.216Z,5.08
2022-11-18T20:06:34.176Z,5.05
2022-11-18T20:09:00.572Z,5.03
2022-11-18T20:11:28.006Z,5.02
2022-11-18T20:13:54.473Z,5.00
2022-11-18T20:16:23.496Z,5.00
2022-11-18T20:19:13.327Z,5.00
2022-11-18T20:21:43.547Z,5.01
2022-11-18T20:24:15.807Z,5.02
2022-11-18T20:30:29.676Z,5.04
2022-11-18T20:32:57.800Z,5.02
2022-11-18T20:35:24.106Z,5.02
2022-11-18T20:37:50.430Z,5.01
2022-11-18T20:40:16.781Z,5.00
2022-11-18T20:43:01.750Z,4.98
2022-11-18T20:45:28.134Z,4.96
2022-11-18T20:47:54.489Z,4.95
2022-11-18T20:50:20.884Z,4.93
2022-11-18T20:52:47.229Z,4.90
2022-11-18T20:55:13.697Z,4.89
2022-11-18T20:57:40.047Z,4.88
2022-11-18T21:00:07.105Z,4.86
2022-11-18T21:02:33.473Z,4.84
2022-11-18T21:04:59.816Z,4.82
2022-11-18T21:07:26.234Z,4.80
2022-11-18T21:09:52.705Z,4.77
2022-11-18T21:12:19.152Z,4.76
2022-11-18T21:14:45.480Z,4.74
2022-11-18T21:17:11.819Z,4.71
2022-11-18T21:19:38.164Z,4.70
2022-11-18T21:22:04.595Z,4.68
2022-11-18T21:24:32.815Z,4.69
2022-11-18T21:27:01.421Z,4.67
2022-11-18T21:29:30.105Z,4.67
2022-11-18T21:32:03.623Z,4.66
2022-11-18T21:34:30.555Z,4.65
2022-11-18T21:36:57.157Z,4.61
2022-11-18T21:39:24.985Z,4.58
2022-11-18T21:41:55.596Z,4.54
2022-11-18T21:44:23.082Z,4.51
2022-11-18T21:46:49.612Z,4.48
2022-11-18T21:49:15.926Z,4.45
2022-11-18T21:51:43.936Z,4.43
2022-11-18T21:54:11.628Z,4.39
2022-11-18T21:56:37.970Z,4.36
2022-11-18T21:59:04.919Z,4.34
2022-11-18T22:01:33.222Z,4.32
2022-11-18T22:04:02.076Z,4.30
2022-11-18T22:06:30.278Z,4.29
2022-11-18T22:08:57.416Z,4.29
2022-11-18T22:11:25.468Z,4.28
2022-11-18T22:13:52.835Z,4.27
2022-11-18T22:16:22.286Z,4.26
2022-11-18T22:18:56.015Z,4.26
2022-11-18T22:21:26.138Z,4.25
2022-11-18T22:23:52.515Z,4.23
2022-11-18T22:26:20.785Z,4.21
2022-11-18T22:28:52.094Z,4.20
2022-11-18T22:31:20.997Z,4.18
2022-11-18T22:33:51.382Z,4.15
2022-11-18T22:36:20.759Z,4.15
2022-11-18T22:38:48.063Z,4.12
2022-11-18T22:41:37.705Z,4.09
2022-11-18T22:44:07.607Z,4.07
2022-11-18T22:46:39.124Z,4.05
2022-11-18T22:49:07.239Z,4.01
2022-11-18T22:51:34.061Z,3.98
2022-11-18T22:54:30.862Z,3.95
2022-11-18T22:56:46.990Z,3.94
2022-11-18T22:59:13.491Z,3.93
2022-11-18T23:01:40.073Z,3.92
2022-11-18T23:04:06.955Z,3.91
2022-11-18T23:06:33.353Z,3.92
2022-11-18T23:08:59.698Z,3.93
2022-11-18T23:11:44.877Z,3.92
2022-11-18T23:14:11.825Z,3.92
2022-11-18T23:16:40.397Z,3.92
2022-11-18T23:19:13.149Z,3.93
2022-11-18T23:21:40.522Z,3.93
2022-11-18T23:24:09.834Z,3.95
2022-11-18T23:26:36.542Z,3.95
2022-11-18T23:29:02.939Z,3.96
2022-11-18T23:31:29.246Z,3.96
2022-11-18T23:33:57.367Z,3.97
2022-11-18T23:36:25.174Z,3.99
2022-11-18T23:38:52.820Z,4.00
2022-11-18T23:41:20.082Z,4.01
2022-11-18T23:43:48.243Z,4.03
2022-11-18T23:46:16.563Z,4.04
2022-11-18T23:48:43.694Z,4.05
2022-11-18T23:51:12.756Z,4.06
2022-11-18T23:53:39.708Z,4.07
2022-11-18T23:56:12.386Z,4.08
2022-11-18T23:58:40.495Z,4.08
